createdAt,value
2022-11-30T00:00:23.753Z,98.04
2022-11-30T00:02:24.989Z,98.06
2022-11-30T00:04:26.584Z,98.08
2022-11-30T00:06:28.434Z,98.06
2022-11-30T00:08:30.279Z,98.06
2022-11-30T00:10:31.952Z,98.05
2022-11-30T00:12:33.137Z,98.03
2022-11-30T00:14:34.416Z,98.04
2022-11-30T00:16:35.818Z,98.05
2022-11-30T00:18:37.009Z,98.04
2022-11-30T00:22:39.996Z,98.05
2022-11-30T00:24:41.655Z,98.03
2022-11-30T00:26:43.375Z,98.03
2022-11-30T00:28:45.096Z,98.06
2022-11-30T00:30:46.722Z,98.08
2022-11-30T00:32:48.420Z,98.08
2022-11-30T00:34:50.104Z,98.09
2022-11-30T00:36:51.731Z,98.12
2022-11-30T00:38:53.086Z,98.1
2022-11-30T00:40:54.613Z,98.11
2022-11-30T00:42:55.591Z,98.1
2022-11-30T00:44:56.719Z,98.13
2022-11-30T00:46:58.628Z,98.14
2022-11-30T00:48:59.789Z,98.16
2022-11-30T00:51:00.809Z,98.2
2022-11-30T00:55:04.324Z,98.19
2022-11-30T00:57:05.866Z,98.19
2022-11-30T00:59:07.858Z,98.18
2022-11-30T01:01:09.441Z,98.18
2022-11-30T01:05:12.691Z,98.21
2022-11-30T01:07:13.796Z,98.22
2022-11-30T01:09:15.103Z,98.24
2022-11-30T01:11:16.880Z,98.26
2022-11-30T01:13:17.934Z,98.25
2022-11-30T01:15:19.021Z,98.26
2022-11-30T01:17:20.765Z,98.28
2022-11-30T01:19:22.221Z,98.31
2022-11-30T01:21:23.242Z,98.29
2022-11-30T01:23:24.329Z,98.3
2022-11-30T01:25:25.432Z,98.29
2022-11-30T01:27:27.077Z,98.28
2022-11-30T01:29:28.057Z,98.28
2022-11-30T01:31:29.979Z,98.3
2022-11-30T01:33:31.840Z,98.29
2022-11-30T01:35:32.823Z,98.31
2022-11-30T01:37:34.679Z,98.35
2022-11-30T01:39:35.767Z,98.34
2022-11-30T01:41:36.762Z,98.35
2022-11-30T01:43:38.181Z,98.37
2022-11-30T01:45:40.140Z,98.37
2022-11-30T01:47:41.259Z,98.37
2022-11-30T01:49:43.178Z,98.37
2022-11-30T01:53:45.566Z,98.41
2022-11-30T01:55:47.324Z,98.41
2022-11-30T01:57:49.018Z,98.41
2022-11-30T01:59:50.560Z,98.43
2022-11-30T02:03:54.091Z,98.45
2022-11-30T02:05:55.578Z,98.45
2022-11-30T02:07:56.855Z,98.49
2022-11-30T02:09:58.473Z,98.48
2022-11-30T02:11:59.880Z,98.53
2022-11-30T02:14:01.721Z,98.52
2022-11-30T02:16:03.553Z,98.53
2022-11-30T02:18:05.239Z,98.53
2022-11-30T02:20:07.086Z,98.52
2022-11-30T02:22:08.819Z,98.53
2022-11-30T02:24:10.180Z,98.55
2022-11-30T02:26:11.625Z,98.55
2022-11-30T02:28:13.078Z,98.55
2022-11-30T02:30:14.922Z,98.58
2022-11-30T02:32:15.943Z,98.58
2022-11-30T02:36:19.044Z,98.6
2022-11-30T02:38:20.188Z,98.64
2022-11-30T02:40:22.021Z,98.63
2022-11-30T02:42:23.753Z,98.62
2022-11-30T02:46:26.996Z,98.62
2022-11-30T02:48:28.131Z,98.66
2022-11-30T02:50:29.224Z,98.66
2022-11-30T02:52:30.233Z,98.65
2022-11-30T02:54:31.658Z,98.66
2022-11-30T02:56:33.188Z,98.68
2022-11-30T02:58:34.749Z,98.66
2022-11-30T03:00:35.784Z,98.68
2022-11-30T03:02:37.052Z,98.68
2022-11-30T03:04:38.757Z,98.7
2022-11-30T03:06:39.801Z,98.69
2022-11-30T03:08:40.966Z,98.69
2022-11-30T03:10:42.481Z,98.68
2022-11-30T03:12:44.000Z,98.68
2022-11-30T03:14:45.631Z,98.71
2022-11-30T03:16:46.571Z,98.69
2022-11-30T03:18:47.655Z,98.7
2022-11-30T03:20:49.579Z,98.73
2022-11-30T03:22:50.621Z,98.71
2022-11-30T03:24:52.358Z,98.75
2022-11-30T03:28:55.305Z,98.75
2022-11-30T03:30:56.756Z,98.72
2022-11-30T03:32:57.835Z,98.75
2022-11-30T03:34:59.646Z,98.76
2022-11-30T03:37:01.303Z,98.77
2022-11-30T03:39:02.357Z,98.77
2022-11-30T03:41:03.379Z,98.77
2022-11-30T03:43:05.288Z,98.77
2022-11-30T03:45:06.838Z,98.77
2022-11-30T03:47:07.917Z,98.81
2022-11-30T03:49:09.727Z,98.8
2022-11-30T03:51:11.173Z,98.79
2022-11-30T03:53:12.205Z,98.8
2022-11-30T03:55:13.853Z,98.83
2022-11-30T03:57:15.130Z,98.85
2022-11-30T04:01:17.785Z,98.87
2022-11-30T04:03:19.233Z,98.87
2022-11-30T04:05:20.975Z,98.88
2022-11-30T04:07:22.414Z,98.87
2022-11-30T04:11:24.771Z,98.88
2022-11-30T04:13:25.963Z,98.9
2022-11-30T04:15:27.093Z,98.89
2022-11-30T04:17:28.187Z,98.89
2022-11-30T04:19:29.341Z,98.88
2022-11-30T04:21:31.107Z,98.87
2022-11-30T04:23:32.504Z,98.86
2022-11-30T04:27:35.443Z,98.86
2022-11-30T04:29:36.988Z,98.89
2022-11-30T04:31:38.210Z,98.89
2022-11-30T04:33:39.989Z,98.89
2022-11-30T04:35:41.754Z,98.89
2022-11-30T04:37:43.080Z,98.91
2022-11-30T04:39:44.446Z,98.9
2022-11-30T04:41:46.228Z,98.9
2022-11-30T04:43:47.962Z,98.91
2022-11-30T04:45:49.390Z,98.88
2022-11-30T04:47:50.527Z,98.89
2022-11-30T04:49:51.893Z,98.9
2022-11-30T04:51:53.148Z,98.89
2022-11-30T04:53:54.934Z,98.88
2022-11-30T04:56:04.086Z,98.89
2022-11-30T04:57:57.284Z,98.91
2022-11-30T04:59:58.611Z,98.9
2022-11-30T05:01:59.940Z,98.89
2022-11-30T05:04:01.856Z,98.9
2022-11-30T05:06:03.056Z,98.91
2022-11-30T05:10:05.790Z,98.87
2022-11-30T05:12:07.393Z,98.89
2022-11-30T05:14:08.669Z,98.89
2022-11-30T05:16:09.894Z,98.89
2022-11-30T05:18:11.681Z,98.88
2022-11-30T05:20:12.753Z,98.87
2022-11-30T05:22:14.425Z,98.86
2022-11-30T05:24:15.766Z,98.84
2022-11-30T05:26:17.415Z,98.85
2022-11-30T05:28:19.235Z,98.86
2022-11-30T05:30:20.356Z,98.84
2022-11-30T05:32:22.083Z,98.85
2022-11-30T05:34:23.075Z,98.88
2022-11-30T05:36:24.816Z,98.87
2022-11-30T05:38:26.365Z,98.85
2022-11-30T05:40:27.989Z,98.86
2022-11-30T05:42:29.270Z,98.85
2022-11-30T05:44:30.478Z,98.85
2022-11-30T05:46:33.078Z,98.84
2022-11-30T05:48:33.453Z,98.83
2022-11-30T05:51:18.371Z,98.82
2022-11-30T05:53:19.903Z,98.8
2022-11-30T05:55:21.529Z,98.82
2022-11-30T05:57:23.221Z,98.8
2022-11-30T05:59:24.390Z,98.79
2022-11-30T06:01:25.951Z,98.77
2022-11-30T06:03:27.920Z,98.76
2022-11-30T06:05:29.813Z,98.71
2022-11-30T06:07:30.898Z,98.68
2022-11-30T06:09:32.668Z,98.68
2022-11-30T06:11:33.774Z,98.67
2022-11-30T06:13:35.415Z,98.62
2022-11-30T06:15:37.169Z,98.6
2022-11-30T06:19:40.605Z,98.6
2022-11-30T06:21:42.534Z,98.58
2022-11-30T06:23:44.014Z,98.56
2022-11-30T06:25:45.151Z,98.55
2022-11-30T06:29:48.822Z,98.57
2022-11-30T06:31:50.615Z,98.53
2022-11-30T06:33:52.202Z,98.51
2022-11-30T06:35:53.642Z,98.47
2022-11-30T06:37:55.035Z,98.45
2022-11-30T06:40:07.192Z,98.46
2022-11-30T06:41:58.506Z,98.46
2022-11-30T06:44:00.035Z,98.46
2022-11-30T06:46:01.499Z,98.45
2022-11-30T06:48:03.055Z,98.4
2022-11-30T06:50:04.944Z,98.38
2022-11-30T06:52:06.709Z,98.37
2022-11-30T06:54:08.439Z,98.36
2022-11-30T06:56:10.991Z,98.34
2022-11-30T06:58:11.766Z,98.33
2022-11-30T07:02:18.085Z,98.31
2022-11-30T07:04:16.721Z,98.27
2022-11-30T07:06:18.369Z,98.29
2022-11-30T07:08:19.932Z,98.31
2022-11-30T07:10:20.912Z,98.31
2022-11-30T07:12:22.775Z,98.33
2022-11-30T07:14:23.789Z,98.33
2022-11-30T07:16:25.695Z,98.37
2022-11-30T07:18:31.602Z,98.36
2022-11-30T07:20:28.298Z,98.39
2022-11-30T07:22:29.407Z,98.34
2022-11-30T07:24:30.380Z,98.33
2022-11-30T07:26:32.284Z,98.33
2022-11-30T07:28:33.966Z,98.31
2022-11-30T07:30:35.776Z,98.27
2022-11-30T07:32:37.334Z,98.29
2022-11-30T07:34:39.198Z,98.26
2022-11-30T07:36:40.812Z,98.23
2022-11-30T07:38:42.727Z,98.32
2022-11-30T07:40:44.135Z,98.3
2022-11-30T07:42:45.933Z,98.28
2022-11-30T07:44:47.146Z,98.3
2022-11-30T07:46:48.802Z,98.24
2022-11-30T07:48:49.928Z,98.27
2022-11-30T07:50:51.470Z,98.26
2022-11-30T07:54:54.213Z,98.31
2022-11-30T07:56:55.771Z,98.24
2022-11-30T07:58:57.539Z,98.29
2022-11-30T08:00:59.105Z,98.29
2022-11-30T08:03:00.080Z,98.28
2022-11-30T08:05:01.314Z,98.35
2022-11-30T08:07:02.318Z,98.36
2022-11-30T08:11:04.884Z,98.37
2022-11-30T08:13:06.471Z,98.36
2022-11-30T08:15:21.743Z,98.3
2022-11-30T08:17:09.256Z,98.3
2022-11-30T08:19:10.831Z,98.35
2022-11-30T08:21:12.505Z,98.29
2022-11-30T08:23:13.987Z,98.26
2022-11-30T08:25:15.024Z,98.29
2022-11-30T08:27:16.634Z,98.24
2022-11-30T08:29:17.887Z,98.21
2022-11-30T08:31:19.118Z,98.19
2022-11-30T08:33:20.506Z,98.1
2022-11-30T08:35:22.285Z,98.05
2022-11-30T08:37:23.858Z,97.99
2022-11-30T08:39:25.307Z,97.94
2022-11-30T08:41:26.319Z,97.81
2022-11-30T08:43:27.673Z,97.73
2022-11-30T08:45:28.840Z,97.61
2022-11-30T08:47:30.677Z,97.59
2022-11-30T08:49:31.615Z,97.65
2022-11-30T08:53:34.781Z,97.34
2022-11-30T08:55:36.393Z,97.21
2022-11-30T08:57:37.459Z,97.18
2022-11-30T08:59:39.159Z,97.02
2022-11-30T09:01:40.159Z,97.34
2022-11-30T09:03:41.969Z,97.23
2022-11-30T09:05:43.777Z,97.25
2022-11-30T09:07:45.482Z,97.18
2022-11-30T09:09:46.848Z,97.23
2022-11-30T09:11:48.309Z,97.32
2022-11-30T09:13:50.029Z,97.19
2022-11-30T09:15:51.264Z,97.17
2022-11-30T09:17:52.708Z,97.17
2022-11-30T09:19:54.553Z,97.02
2022-11-30T09:21:56.055Z,96.87
2022-11-30T09:23:57.118Z,96.79
2022-11-30T09:25:58.853Z,96.71
2022-11-30T09:27:59.851Z,96.38
2022-11-30T09:30:00.978Z,96.27
2022-11-30T09:32:02.337Z,96.4
2022-11-30T09:36:05.282Z,96.66
2022-11-30T09:38:06.357Z,96.41
2022-11-30T09:40:07.975Z,96.68
2022-11-30T09:42:09.454Z,96.47
2022-11-30T09:44:11.194Z,96.23
2022-11-30T09:46:12.530Z,96.44
2022-11-30T09:48:13.945Z,96.23
2022-11-30T09:50:15.382Z,96.21
2022-11-30T09:52:16.535Z,95.91
2022-11-30T09:54:17.715Z,96.05
2022-11-30T09:56:18.770Z,95.75
2022-11-30T09:58:20.396Z,95.78
2022-11-30T10:00:21.998Z,96.07
2022-11-30T10:02:23.656Z,95.74
2022-11-30T10:04:25.250Z,95.99
2022-11-30T10:08:28.058Z,95.68
2022-11-30T10:10:32.562Z,95.99
2022-11-30T10:12:31.481Z,95.62
2022-11-30T10:14:32.903Z,95.71
2022-11-30T10:18:36.283Z,95.79
2022-11-30T10:20:38.203Z,95.95
2022-11-30T10:22:39.323Z,95.53
2022-11-30T10:24:40.331Z,95.46
2022-11-30T10:26:41.334Z,95.35
2022-11-30T10:28:47.693Z,95.84
2022-11-30T10:30:43.903Z,95.68
2022-11-30T10:32:44.806Z,95.56
2022-11-30T10:34:46.783Z,95.42
2022-11-30T10:36:48.339Z,95.55
2022-11-30T10:38:49.736Z,94.77
2022-11-30T10:40:50.940Z,95.32
2022-11-30T10:42:52.660Z,94.58
2022-11-30T10:44:54.370Z,95.3
2022-11-30T10:46:55.816Z,95.1
2022-11-30T10:48:57.022Z,95
2022-11-30T10:50:58.630Z,94.82
2022-11-30T10:53:00.200Z,94.61
2022-11-30T10:55:04.724Z,94.38
2022-11-30T10:57:02.962Z,94.68
2022-11-30T10:59:04.696Z,95
2022-11-30T11:01:06.216Z,94.62
2022-11-30T11:03:07.762Z,94.81
2022-11-30T11:07:10.130Z,95.25
2022-11-30T11:09:11.165Z,94.93
2022-11-30T11:11:12.636Z,94.79
2022-11-30T11:13:13.758Z,94.64
2022-11-30T11:17:16.430Z,95.11
2022-11-30T11:19:18.138Z,95.3
2022-11-30T11:21:19.271Z,95.26
2022-11-30T11:23:21.186Z,95
2022-11-30T11:25:22.538Z,94.84
2022-11-30T11:27:24.293Z,94.78
2022-11-30T11:29:25.479Z,94.75
2022-11-30T11:31:27.401Z,94.79
2022-11-30T11:33:29.108Z,94.58
2022-11-30T11:35:30.841Z,95.14
2022-11-30T11:37:31.860Z,95.08
2022-11-30T11:39:32.963Z,95.18
2022-11-30T11:41:34.443Z,94.49
2022-11-30T11:43:35.660Z,94.61
2022-11-30T11:45:36.987Z,94.65
2022-11-30T11:47:37.931Z,94.72
2022-11-30T11:49:39.819Z,94.6
2022-11-30T11:53:45.053Z,95.2
2022-11-30T11:55:44.199Z,94.53
2022-11-30T11:57:45.544Z,94.37
2022-11-30T11:59:47.625Z,94.16
2022-11-30T12:01:48.822Z,94.06
2022-11-30T12:03:50.257Z,94.25
2022-11-30T12:05:51.385Z,94.13
2022-11-30T12:07:52.819Z,94.06
2022-11-30T12:09:54.510Z,93.94
2022-11-30T12:11:56.256Z,94.29
2022-11-30T12:13:58.178Z,93.81
2022-11-30T12:16:00.184Z,94.18
2022-11-30T12:18:01.514Z,93.78
2022-11-30T12:22:04.538Z,92.83
2022-11-30T12:24:05.519Z,92.64
2022-11-30T12:26:07.306Z,93.55
2022-11-30T12:28:08.808Z,92.57
2022-11-30T12:32:11.299Z,93.16
2022-11-30T12:34:12.591Z,93.05
2022-11-30T12:34:56.462Z,92.9
2022-11-30T12:36:58.362Z,92.64
2022-11-30T12:38:59.947Z,93.71
2022-11-30T12:41:01.079Z,92.72
2022-11-30T12:43:02.896Z,92.49
2022-11-30T12:45:04.172Z,91.57
2022-11-30T12:47:05.448Z,91.96
2022-11-30T12:49:07.389Z,92.2
2022-11-30T12:51:09.171Z,91.92
2022-11-30T12:53:10.495Z,91.65
2022-11-30T12:55:12.078Z,92.55
2022-11-30T12:57:13.940Z,92.74
2022-11-30T12:59:15.749Z,92.18
2022-11-30T13:01:17.400Z,91.35
2022-11-30T13:03:18.325Z,91.4
2022-11-30T13:05:19.861Z,91.88
2022-11-30T13:09:23.492Z,92.2
2022-11-30T13:11:25.111Z,91.58
2022-11-30T13:13:26.650Z,91.39
2022-11-30T13:15:28.189Z,91.66
2022-11-30T13:17:29.390Z,92.27
2022-11-30T13:19:30.937Z,91.92
2022-11-30T13:21:32.272Z,92.36
2022-11-30T13:23:33.590Z,92
2022-11-30T13:26:06.691Z,91.97
2022-11-30T13:27:36.997Z,91.71
2022-11-30T13:29:38.985Z,91.78
2022-11-30T13:31:40.517Z,91.79
2022-11-30T13:33:42.399Z,91.13
2022-11-30T13:35:43.820Z,91.33
2022-11-30T13:37:45.602Z,91.74
2022-11-30T13:39:47.063Z,92.29
2022-11-30T13:41:48.701Z,92.04
2022-11-30T13:43:49.744Z,91.93
2022-11-30T13:45:51.663Z,92.04
2022-11-30T13:47:53.525Z,92.14
2022-11-30T13:52:21.326Z,92.92
2022-11-30T13:54:12.212Z,92.5
2022-11-30T13:58:01.643Z,92.93
2022-11-30T14:00:03.344Z,92.58
2022-11-30T14:02:05.235Z,91.95
2022-11-30T14:04:06.355Z,91.61
2022-11-30T14:06:07.365Z,92
2022-11-30T14:08:08.549Z,91.52
2022-11-30T14:10:10.180Z,91.91
2022-11-30T14:12:11.897Z,91.71
2022-11-30T14:14:13.576Z,92.06
2022-11-30T14:16:14.925Z,91.89
2022-11-30T14:18:16.195Z,91.96
2022-11-30T14:20:17.499Z,92.14
2022-11-30T14:22:18.824Z,92.29
2022-11-30T14:24:20.351Z,91.94
2022-11-30T14:26:21.558Z,92.3
2022-11-30T14:28:22.602Z,91.84
2022-11-30T14:30:23.865Z,92.34
2022-11-30T14:34:26.880Z,92.37
2022-11-30T14:36:28.214Z,92.68
2022-11-30T14:40:31.227Z,92.22
2022-11-30T14:42:32.788Z,92.46
2022-11-30T14:44:34.616Z,91.7
2022-11-30T14:46:36.453Z,92.12
2022-11-30T14:48:38.332Z,92.74
2022-11-30T14:50:39.704Z,92.75
2022-11-30T14:52:40.854Z,92.37
2022-11-30T14:54:42.479Z,92.62
2022-11-30T14:56:43.471Z,92.39
2022-11-30T14:58:44.504Z,92.89
2022-11-30T15:00:46.042Z,92.54
2022-11-30T15:02:47.630Z,92.67
2022-11-30T15:06:50.390Z,92.94
2022-11-30T15:08:52.211Z,92.67
2022-11-30T15:10:53.870Z,92.99
2022-11-30T15:12:55.618Z,92.97
2022-11-30T15:16:58.672Z,93.16
2022-11-30T15:19:00.306Z,93.28
2022-11-30T15:21:02.155Z,92.89
2022-11-30T15:23:03.868Z,93.02
2022-11-30T15:25:05.626Z,93.08
2022-11-30T15:27:10.533Z,93.48
2022-11-30T15:29:08.676Z,93.55
2022-11-30T15:31:10.595Z,93.53
2022-11-30T15:33:11.568Z,93.33
2022-11-30T15:35:13.390Z,93.06
2022-11-30T15:37:15.246Z,92.88
2022-11-30T15:39:16.577Z,93.07
2022-11-30T15:41:18.177Z,93.45
2022-11-30T15:43:19.481Z,93.48
2022-11-30T15:45:20.824Z,93.46
2022-11-30T15:49:24.319Z,93.62
2022-11-30T15:51:25.481Z,93.69
2022-11-30T15:53:26.937Z,93.32
2022-11-30T15:55:28.437Z,93.64
2022-11-30T15:59:30.811Z,93.03
2022-11-30T16:01:32.405Z,92.88
2022-11-30T16:03:33.817Z,93.63
2022-11-30T16:05:35.570Z,93.23
2022-11-30T16:07:37.056Z,92.95
2022-11-30T16:09:38.091Z,93.31
2022-11-30T16:11:40.062Z,93.14
2022-11-30T16:13:41.119Z,92.9
2022-11-30T16:15:43.081Z,92.55
2022-11-30T16:17:44.083Z,92.57
2022-11-30T16:19:46.153Z,92.8
2022-11-30T16:21:47.538Z,93.11
2022-11-30T16:23:49.128Z,92.88
2022-11-30T16:25:50.481Z,92.94
2022-11-30T16:27:51.551Z,92.73
2022-11-30T16:29:53.048Z,92.3
2022-11-30T16:31:53.771Z,92.51
2022-11-30T16:33:55.403Z,92.62
2022-11-30T16:35:56.730Z,92.59
2022-11-30T16:37:58.051Z,92.47
2022-11-30T16:39:59.216Z,92.5
2022-11-30T16:42:00.827Z,92.61
2022-11-30T16:44:02.308Z,93.04
2022-11-30T16:48:05.311Z,92.63
2022-11-30T16:50:06.523Z,92.78
2022-11-30T16:52:07.588Z,93
2022-11-30T16:54:09.254Z,93.05
2022-11-30T16:58:12.787Z,92.77
2022-11-30T17:00:14.593Z,92.6
2022-11-30T17:02:16.535Z,92.63
2022-11-30T17:04:18.480Z,92.56
2022-11-30T17:06:20.088Z,92.74
2022-11-30T17:08:21.787Z,92.84
2022-11-30T17:10:23.529Z,92.5
2022-11-30T17:12:25.344Z,92.53
2022-11-30T17:14:27.319Z,92.98
2022-11-30T17:16:28.933Z,92.63
2022-11-30T17:18:30.793Z,92.73
2022-11-30T17:20:32.506Z,92.39
2022-11-30T17:22:33.552Z,92.53
2022-11-30T17:24:34.662Z,92.25
2022-11-30T17:26:35.937Z,92.61
2022-11-30T17:30:38.341Z,92.83
2022-11-30T17:32:39.916Z,92.35
2022-11-30T17:34:41.441Z,92.2
2022-11-30T17:36:42.861Z,92.19
2022-11-30T17:40:46.138Z,92.2
2022-11-30T17:42:48.042Z,92.01
2022-11-30T17:44:49.952Z,92.41
2022-11-30T17:46:51.302Z,91.67
2022-11-30T17:48:52.564Z,91.5
2022-11-30T17:50:54.407Z,91.98
2022-11-30T17:52:56.193Z,91.7
2022-11-30T17:54:57.987Z,91.49
2022-11-30T17:56:59.822Z,91.69
2022-11-30T17:59:01.261Z,91.43
2022-11-30T18:01:02.591Z,91.33
2022-11-30T18:03:04.387Z,91.54
2022-11-30T18:05:06.059Z,91.18
2022-11-30T18:07:07.097Z,91.55
2022-11-30T18:09:08.566Z,91.34
2022-11-30T18:13:11.361Z,91.97
2022-11-30T18:15:13.300Z,92.01
2022-11-30T18:17:14.293Z,91.47
2022-11-30T18:19:16.201Z,91.93
2022-11-30T18:23:19.687Z,91.38
2022-11-30T18:25:20.785Z,91.23
2022-11-30T18:27:22.530Z,90.45
2022-11-30T18:29:24.380Z,90.14
2022-11-30T18:31:26.328Z,90.82
2022-11-30T18:33:27.639Z,90.32
2022-11-30T18:35:28.887Z,90.3
2022-11-30T18:37:30.653Z,89.26
2022-11-30T18:39:31.761Z,90.08
2022-11-30T18:41:33.624Z,89.48
2022-11-30T18:43:34.873Z,89.64
2022-11-30T18:45:36.121Z,89.71
2022-11-30T18:47:37.424Z,90.03
2022-11-30T18:49:39.205Z,89.82
2022-11-30T18:51:41.153Z,88.88
2022-11-30T18:55:44.931Z,89.37
2022-11-30T18:57:46.871Z,88.64
2022-11-30T18:59:51.100Z,88.78
2022-11-30T19:01:50.548Z,88.86
2022-11-30T19:05:53.942Z,88.24
2022-11-30T19:07:55.855Z,88.38
2022-11-30T19:09:56.883Z,88.94
2022-11-30T19:11:57.987Z,88.87
2022-11-30T19:13:59.367Z,88.94
2022-11-30T19:16:00.619Z,88.82
2022-11-30T19:18:02.316Z,89.01
2022-11-30T19:20:03.697Z,88.99
2022-11-30T19:20:47.557Z,88.83
2022-11-30T19:22:49.097Z,89.52
2022-11-30T19:24:50.638Z,89.7
2022-11-30T19:26:52.109Z,89.36
2022-11-30T19:28:53.348Z,89.02
2022-11-30T19:30:54.846Z,88.77
2022-11-30T19:32:55.933Z,89.35
2022-11-30T19:34:57.523Z,89.18
2022-11-30T19:36:59.104Z,89.41
2022-11-30T19:39:00.809Z,89.88
2022-11-30T19:43:03.227Z,88.98
2022-11-30T19:45:04.226Z,89.8
2022-11-30T19:47:05.298Z,90.07
2022-11-30T19:49:06.450Z,90.47
2022-11-30T19:51:10.036Z,90.61
2022-11-30T19:53:09.185Z,90.33
2022-11-30T19:55:11.049Z,90.39
2022-11-30T19:57:12.242Z,90.46
2022-11-30T19:59:13.877Z,90.78
2022-11-30T20:01:15.370Z,88.82
2022-11-30T20:03:17.085Z,89.79
2022-11-30T20:05:18.750Z,89.62
2022-11-30T20:07:19.926Z,89.65
2022-11-30T20:09:21.255Z,89.82
2022-11-30T20:11:23.135Z,89.41
2022-11-30T20:13:24.319Z,89.12
2022-11-30T20:15:26.036Z,88.97
2022-11-30T20:17:27.998Z,88.81
2022-11-30T20:19:29.170Z,88.27
2022-11-30T20:21:31.077Z,88.81
2022-11-30T20:25:33.843Z,88.8
2022-11-30T20:27:35.417Z,89.19
2022-11-30T20:29:36.967Z,88.61
2022-11-30T20:31:38.006Z,88.88
2022-11-30T20:33:39.964Z,88.87
2022-11-30T20:35:41.868Z,89.43
2022-11-30T20:37:43.261Z,89.37
2022-11-30T20:39:46.173Z,89.05
2022-11-30T20:41:45.758Z,87.92
2022-11-30T20:43:47.246Z,87.71
2022-11-30T20:45:48.856Z,88.02
2022-11-30T20:47:50.359Z,87.65
2022-11-30T20:49:52.182Z,87.97
2022-11-30T20:51:53.156Z,87.73
2022-11-30T20:53:54.310Z,88.79
2022-11-30T20:57:57.387Z,87.38
2022-11-30T20:59:59.090Z,87.43
2022-11-30T21:02:00.261Z,87.5
2022-11-30T21:04:01.891Z,88.5
2022-11-30T21:08:05.044Z,87.57
2022-11-30T21:10:06.440Z,87.66
2022-11-30T21:12:08.274Z,87.75
2022-11-30T21:14:09.417Z,87.08
2022-11-30T21:16:11.426Z,88.05
2022-11-30T21:18:13.075Z,87.98
2022-11-30T21:20:14.594Z,87.99
2022-11-30T21:22:16.427Z,88.4
2022-11-30T21:24:17.817Z,87.68
2022-11-30T21:26:18.990Z,86.53
2022-11-30T21:28:20.389Z,87.76
2022-11-30T21:30:21.858Z,88.02
2022-11-30T21:32:23.344Z,88.27
2022-11-30T21:34:24.459Z,88.7
2022-11-30T21:36:25.855Z,88.31
2022-11-30T21:40:28.950Z,87.81
2022-11-30T21:42:30.801Z,88.15
2022-11-30T21:44:32.519Z,88
2022-11-30T21:46:33.803Z,88.39
2022-11-30T21:50:36.699Z,88.93
2022-11-30T21:52:38.293Z,88.74
2022-11-30T21:54:40.201Z,87.9
2022-11-30T21:56:41.960Z,87.41
2022-11-30T21:58:42.991Z,87.23
2022-11-30T22:00:44.746Z,87.47
2022-11-30T22:02:45.827Z,88.03
2022-11-30T22:04:47.141Z,87.54
2022-11-30T22:06:49.152Z,87.84
2022-11-30T22:08:50.499Z,88.25
2022-11-30T22:10:51.561Z,87.21
2022-11-30T22:12:53.123Z,87.2
2022-11-30T22:14:54.276Z,87.23
2022-11-30T22:16:55.553Z,87.8
2022-11-30T22:18:57.190Z,86.57
2022-11-30T22:20:59.022Z,86.21
2022-11-30T22:23:00.949Z,86.52
2022-11-30T22:25:02.026Z,87.11
2022-11-30T22:27:03.542Z,87.25
2022-11-30T22:29:04.655Z,87.58
2022-11-30T22:31:05.851Z,86.94
2022-11-30T22:33:07.121Z,86.69
2022-11-30T22:35:08.791Z,86.91
2022-11-30T22:39:11.492Z,87.29
2022-11-30T22:41:12.557Z,87.35
2022-11-30T22:43:14.344Z,87.12
2022-11-30T22:45:15.477Z,87.8
2022-11-30T22:49:21.014Z,87.4
2022-11-30T22:51:20.861Z,87.31
2022-11-30T22:53:22.116Z,87.36
2022-11-30T22:55:24.107Z,87.13
2022-11-30T22:57:25.584Z,87.65
2022-11-30T22:59:26.856Z,87.71
2022-11-30T23:01:28.107Z,87.54
2022-11-30T23:03:29.585Z,87.36
2022-11-30T23:05:30.965Z,88.18
2022-11-30T23:07:32.461Z,87.72
2022-11-30T23:09:33.249Z,87.57
2022-11-30T23:11:34.320Z,87.7
2022-11-30T23:13:36.131Z,87.65
2022-11-30T23:15:37.803Z,87.58
2022-11-30T23:17:39.156Z,88.01
2022-11-30T23:19:40.241Z,87.81
2022-11-30T23:21:42.186Z,88.44
2022-11-30T23:23:43.645Z,88.17
2022-11-30T23:25:45.114Z,87.83
2022-11-30T23:27:46.766Z,88.04
2022-11-30T23:31:49.536Z,87.64
2022-11-30T23:33:50.995Z,88.12
2022-11-30T23:35:52.176Z,88.15
2022-11-30T23:37:53.209Z,88.14
2022-11-30T23:39:54.332Z,87.93
2022-11-30T23:41:55.880Z,87.95
2022-11-30T23:43:57.530Z,87.75
2022-11-30T23:45:59.333Z,88.44
2022-11-30T23:48:00.970Z,88.11
2022-11-30T23:50:02.281Z,87.21
2022-11-30T23:52:03.741Z,87.55
2022-11-30T23:54:05.013Z,88.14
2022-11-30T23:56:06.660Z,87.15
2022-11-30T23:58:08.628Z,87.34
